sensor_id;sensor_type;location;lat;lon;timestamp;P1;durP1;ratioP1;P2;durP2;ratioP2
20476;SDS011;10397;50.948;11.092;2023-06-10T00:00:52;4.03;;;3.17;;
20476;SDS011;10397;50.948;11.092;2023-06-10T00:03:23;4.53;;;2.97;;
20476;SDS011;10397;50.948;11.092;2023-06-10T00:05:54;4.97;;;3.70;;
20476;SDS011;10397;50.948;11.092;2023-06-10T00:08:25;5.87;;;4.83;;
20476;SDS011;10397;50.948;11.092;2023-06-10T00:10:57;4.95;;;4.10;;
20476;SDS011;10397;50.948;11.092;2023-06-10T00:13:28;6.70;;;3.83;;
20476;SDS011;10397;50.948;11.092;2023-06-10T00:15:59;4.83;;;4.33;;
20476;SDS011;10397;50.948;11.092;2023-06-10T00:18:31;3.58;;;3.27;;
20476;SDS011;10397;50.948;11.092;2023-06-10T00:21:02;3.50;;;3.17;;
20476;SDS011;10397;50.948;11.092;2023-06-10T00:23:33;4.40;;;3.70;;
20476;SDS011;10397;50.948;11.092;2023-06-10T00:26:04;4.37;;;3.35;;
20476;SDS011;10397;50.948;11.092;2023-06-10T00:28:35;4.33;;;3.92;;
20476;SDS011;10397;50.948;11.092;2023-06-10T00:31:07;3.72;;;3.40;;
20476;SDS011;10397;50.948;11.092;2023-06-10T00:33:39;5.92;;;4.15;;
20476;SDS011;10397;50.948;11.092;2023-06-10T00:36:11;5.20;;;4.70;;
20476;SDS011;10397;50.948;11.092;2023-06-10T00:38:42;5.95;;;4.10;;
20476;SDS011;10397;50.948;11.092;2023-06-10T00:41:14;4.78;;;4.25;;
20476;SDS011;10397;50.948;11.092;2023-06-10T00:43:45;4.37;;;3.62;;
20476;SDS011;10397;50.948;11.092;2023-06-10T00:46:17;4.60;;;3.92;;
20476;SDS011;10397;50.948;11.092;2023-06-10T00:48:48;4.65;;;3.62;;
20476;SDS011;10397;50.948;11.092;2023-06-10T00:51:19;3.35;;;3.05;;
20476;SDS011;10397;50.948;11.092;2023-06-10T00:53:51;3.15;;;2.85;;
20476;SDS011;10397;50.948;11.092;2023-06-10T00:56:22;5.17;;;3.33;;
20476;SDS011;10397;50.948;11.092;2023-06-10T00:58:53;6.83;;;3.40;;
20476;SDS011;10397;50.948;11.092;2023-06-10T01:01:25;4.12;;;3.20;;
20476;SDS011;10397;50.948;11.092;2023-06-10T01:03:56;4.33;;;3.70;;
20476;SDS011;10397;50.948;11.092;2023-06-10T01:06:34;3.37;;;3.07;;
20476;SDS011;10397;50.948;11.092;2023-06-10T01:11:52;3.93;;;3.50;;
20476;SDS011;10397;50.948;11.092;2023-06-10T01:14:22;3.73;;;3.43;;
20476;SDS011;10397;50.948;11.092;2023-06-10T01:16:53;3.42;;;3.12;;
20476;SDS011;10397;50.948;11.092;2023-06-10T01:19:25;5.35;;;3.30;;
20476;SDS011;10397;50.948;11.092;2023-06-10T01:21:56;3.85;;;3.40;;
20476;SDS011;10397;50.948;11.092;2023-06-10T01:24:27;5.40;;;3.83;;
20476;SDS011;10397;50.948;11.092;2023-06-10T01:26:58;4.03;;;3.60;;
20476;SDS011;10397;50.948;11.092;2023-06-10T01:29:32;4.37;;;3.57;;
20476;SDS011;10397;50.948;11.092;2023-06-10T01:32:04;6.37;;;3.00;;
20476;SDS011;10397;50.948;11.092;2023-06-10T01:34:32;4.83;;;4.33;;
20476;SDS011;10397;50.948;11.092;2023-06-10T01:37:04;4.55;;;3.77;;
20476;SDS011;10397;50.948;11.092;2023-06-10T01:39:34;4.10;;;3.30;;
20476;SDS011;10397;50.948;11.092;2023-06-10T01:42:05;5.10;;;4.15;;
20476;SDS011;10397;50.948;11.092;2023-06-10T01:44:37;5.33;;;3.87;;
20476;SDS011;10397;50.948;11.092;2023-06-10T01:47:07;4.30;;;3.80;;
20476;SDS011;10397;50.948;11.092;2023-06-10T01:49:38;4.70;;;3.90;;
20476;SDS011;10397;50.948;11.092;2023-06-10T01:52:08;4.50;;;3.33;;
20476;SDS011;10397;50.948;11.092;2023-06-10T01:54:39;4.57;;;3.57;;
20476;SDS011;10397;50.948;11.092;2023-06-10T01:57:10;4.28;;;3.67;;
20476;SDS011;10397;50.948;11.092;2023-06-10T01:59:41;4.62;;;4.15;;
20476;SDS011;10397;50.948;11.092;2023-06-10T02:02:12;4.72;;;3.40;;
20476;SDS011;10397;50.948;11.092;2023-06-10T02:04:43;3.87;;;3.58;;
20476;SDS011;10397;50.948;11.092;2023-06-10T02:07:15;6.42;;;3.90;;
20476;SDS011;10397;50.948;11.092;2023-06-10T02:09:46;3.77;;;3.47;;
20476;SDS011;10397;50.948;11.092;2023-06-10T02:12:18;3.75;;;3.35;;
20476;SDS011;10397;50.948;11.092;2023-06-10T02:14:49;6.40;;;3.37;;
20476;SDS011;10397;50.948;11.092;2023-06-10T02:17:21;5.23;;;3.40;;
20476;SDS011;10397;50.948;11.092;2023-06-10T02:19:52;3.70;;;3.40;;
20476;SDS011;10397;50.948;11.092;2023-06-10T02:22:23;5.53;;;3.98;;
20476;SDS011;10397;50.948;11.092;2023-06-10T02:24:55;4.60;;;4.12;;
20476;SDS011;10397;50.948;11.092;2023-06-10T02:27:26;4.50;;;3.60;;
20476;SDS011;10397;50.948;11.092;2023-06-10T02:29:57;5.67;;;3.30;;
20476;SDS011;10397;50.948;11.092;2023-06-10T02:32:28;5.75;;;3.40;;
20476;SDS011;10397;50.948;11.092;2023-06-10T02:34:59;6.80;;;3.70;;
20476;SDS011;10397;50.948;11.092;2023-06-10T02:37:30;5.75;;;3.80;;
20476;SDS011;10397;50.948;11.092;2023-06-10T02:40:01;7.77;;;4.00;;
20476;SDS011;10397;50.948;11.092;2023-06-10T02:42:32;3.70;;;3.23;;
20476;SDS011;10397;50.948;11.092;2023-06-10T02:45:03;4.10;;;3.70;;
20476;SDS011;10397;50.948;11.092;2023-06-10T02:47:33;6.80;;;3.43;;
20476;SDS011;10397;50.948;11.092;2023-06-10T02:50:05;6.90;;;3.23;;
20476;SDS011;10397;50.948;11.092;2023-06-10T02:52:36;3.95;;;3.27;;
20476;SDS011;10397;50.948;11.092;2023-06-10T02:55:07;5.83;;;3.50;;
20476;SDS011;10397;50.948;11.092;2023-06-10T02:57:37;3.80;;;3.30;;
20476;SDS011;10397;50.948;11.092;2023-06-10T03:00:08;6.60;;;4.10;;
20476;SDS011;10397;50.948;11.092;2023-06-10T03:02:39;5.27;;;3.53;;
20476;SDS011;10397;50.948;11.092;2023-06-10T03:05:10;4.40;;;3.63;;
20476;SDS011;10397;50.948;11.092;2023-06-10T03:07:40;4.25;;;3.85;;
20476;SDS011;10397;50.948;11.092;2023-06-10T03:10:11;5.23;;;2.93;;
20476;SDS011;10397;50.948;11.092;2023-06-10T03:12:42;5.03;;;3.25;;
20476;SDS011;10397;50.948;11.092;2023-06-10T03:15:14;4.67;;;3.20;;
20476;SDS011;10397;50.948;11.092;2023-06-10T03:17:45;4.95;;;3.20;;
20476;SDS011;10397;50.948;11.092;2023-06-10T03:20:16;5.63;;;3.27;;
20476;SDS011;10397;50.948;11.092;2023-06-10T03:22:47;5.40;;;3.08;;
20476;SDS011;10397;50.948;11.092;2023-06-10T03:25:18;5.97;;;3.90;;
20476;SDS011;10397;50.948;11.092;2023-06-10T03:27:49;3.63;;;2.83;;
20476;SDS011;10397;50.948;11.092;2023-06-10T03:30:20;7.30;;;2.90;;
20476;SDS011;10397;50.948;11.092;2023-06-10T03:32:51;4.03;;;2.85;;
20476;SDS011;10397;50.948;11.092;2023-06-10T03:35:22;4.17;;;3.23;;
20476;SDS011;10397;50.948;11.092;2023-06-10T03:37:53;3.27;;;2.87;;
20476;SDS011;10397;50.948;11.092;2023-06-10T03:40:24;5.05;;;2.80;;
20476;SDS011;10397;50.948;11.092;2023-06-10T03:42:55;3.62;;;2.90;;
20476;SDS011;10397;50.948;11.092;2023-06-10T03:45:27;4.72;;;2.98;;
20476;SDS011;10397;50.948;11.092;2023-06-10T03:48:00;3.72;;;2.52;;
20476;SDS011;10397;50.948;11.092;2023-06-10T03:50:29;3.00;;;2.53;;
20476;SDS011;10397;50.948;11.092;2023-06-10T03:53:00;10.25;;;3.33;;
20476;SDS011;10397;50.948;11.092;2023-06-10T03:55:31;4.57;;;2.87;;
20476;SDS011;10397;50.948;11.092;2023-06-10T03:58:02;4.58;;;2.77;;
20476;SDS011;10397;50.948;11.092;2023-06-10T04:00:33;16.70;;;3.67;;
20476;SDS011;10397;50.948;11.092;2023-06-10T04:03:04;6.70;;;2.83;;
20476;SDS011;10397;50.948;11.092;2023-06-10T04:05:35;8.47;;;3.00;;
20476;SDS011;10397;50.948;11.092;2023-06-10T04:08:07;4.27;;;2.70;;
20476;SDS011;10397;50.948;11.092;2023-06-10T04:10:37;4.67;;;3.33;;
20476;SDS011;10397;50.948;11.092;2023-06-10T04:13:08;4.63;;;2.90;;
20476;SDS011;10397;50.948;11.092;2023-06-10T04:15:39;4.53;;;3.27;;
20476;SDS011;10397;50.948;11.092;2023-06-10T04:18:10;5.83;;;3.47;;
20476;SDS011;10397;50.948;11.092;2023-06-10T04:20:42;9.43;;;3.10;;
20476;SDS011;10397;50.948;11.092;2023-06-10T04:23:13;6.15;;;3.20;;
20476;SDS011;10397;50.948;11.092;2023-06-10T04:25:45;4.10;;;3.00;;
20476;SDS011;10397;50.948;11.092;2023-06-10T04:28:16;5.67;;;3.25;;
20476;SDS011;10397;50.948;11.092;2023-06-10T04:30:47;4.95;;;3.22;;
20476;SDS011;10397;50.948;11.092;2023-06-10T04:33:18;4.87;;;2.85;;
20476;SDS011;10397;50.948;11.092;2023-06-10T04:35:49;3.90;;;3.05;;
20476;SDS011;10397;50.948;11.092;2023-06-10T04:38:20;5.87;;;2.50;;
20476;SDS011;10397;50.948;11.092;2023-06-10T04:40:52;4.40;;;3.15;;
20476;SDS011;10397;50.948;11.092;2023-06-10T04:43:23;5.83;;;3.43;;
20476;SDS011;10397;50.948;11.092;2023-06-10T04:45:55;5.33;;;3.47;;
20476;SDS011;10397;50.948;11.092;2023-06-10T04:48:25;5.58;;;3.50;;
20476;SDS011;10397;50.948;11.092;2023-06-10T04:50:56;3.83;;;2.67;;
20476;SDS011;10397;50.948;11.092;2023-06-10T04:53:26;5.57;;;3.40;;
20476;SDS011;10397;50.948;11.092;2023-06-10T04:55:57;4.30;;;2.93;;
20476;SDS011;10397;50.948;11.092;2023-06-10T04:58:29;4.87;;;2.92;;
20476;SDS011;10397;50.948;11.092;2023-06-10T05:01:00;5.78;;;3.40;;
20476;SDS011;10397;50.948;11.092;2023-06-10T05:03:31;6.75;;;3.58;;
20476;SDS011;10397;50.948;11.092;2023-06-10T05:06:03;5.07;;;3.90;;
20476;SDS011;10397;50.948;11.092;2023-06-10T05:08:34;5.85;;;3.92;;
20476;SDS011;10397;50.948;11.092;2023-06-10T05:11:05;5.75;;;3.08;;
20476;SDS011;10397;50.948;11.092;2023-06-10T05:13:36;8.23;;;3.30;;
20476;SDS011;10397;50.948;11.092;2023-06-10T05:16:07;5.30;;;3.22;;
20476;SDS011;10397;50.948;11.092;2023-06-10T05:18:38;6.83;;;3.67;;
20476;SDS011;10397;50.948;11.092;2023-06-10T05:21:10;7.10;;;3.77;;
20476;SDS011;10397;50.948;11.092;2023-06-10T05:23:41;5.33;;;3.22;;
20476;SDS011;10397;50.948;11.092;2023-06-10T05:26:12;5.03;;;3.43;;
20476;SDS011;10397;50.948;11.092;2023-06-10T05:28:43;5.97;;;3.58;;
20476;SDS011;10397;50.948;11.092;2023-06-10T05:31:15;7.60;;;3.83;;
20476;SDS011;10397;50.948;11.092;2023-06-10T05:33:46;6.60;;;3.25;;
20476;SDS011;10397;50.948;11.092;2023-06-10T05:36:18;7.15;;;4.15;;
20476;SDS011;10397;50.948;11.092;2023-06-10T05:38:49;9.15;;;3.90;;
20476;SDS011;10397;50.948;11.092;2023-06-10T05:41:21;8.05;;;3.85;;
20476;SDS011;10397;50.948;11.092;2023-06-10T05:43:53;7.62;;;4.60;;
20476;SDS011;10397;50.948;11.092;2023-06-10T05:46:24;6.10;;;3.73;;
20476;SDS011;10397;50.948;11.092;2023-06-10T05:48:55;5.15;;;3.77;;
20476;SDS011;10397;50.948;11.092;2023-06-10T05:51:26;8.95;;;3.95;;
20476;SDS011;10397;50.948;11.092;2023-06-10T05:53:57;7.10;;;4.30;;
20476;SDS011;10397;50.948;11.092;2023-06-10T05:56:28;8.53;;;4.23;;
20476;SDS011;10397;50.948;11.092;2023-06-10T05:58:59;8.00;;;4.10;;
20476;SDS011;10397;50.948;11.092;2023-06-10T06:01:31;7.33;;;3.50;;
20476;SDS011;10397;50.948;11.092;2023-06-10T06:04:03;5.85;;;3.87;;
20476;SDS011;10397;50.948;11.092;2023-06-10T06:06:34;9.13;;;4.58;;
20476;SDS011;10397;50.948;11.092;2023-06-10T06:09:05;7.75;;;3.72;;
20476;SDS011;10397;50.948;11.092;2023-06-10T06:11:37;6.28;;;3.72;;
20476;SDS011;10397;50.948;11.092;2023-06-10T06:14:08;10.38;;;4.03;;
20476;SDS011;10397;50.948;11.092;2023-06-10T06:16:40;7.75;;;4.00;;
20476;SDS011;10397;50.948;11.092;2023-06-10T06:19:11;6.80;;;4.53;;
20476;SDS011;10397;50.948;11.092;2023-06-10T06:21:42;5.20;;;4.25;;
20476;SDS011;10397;50.948;11.092;2023-06-10T06:24:15;5.35;;;3.52;;
20476;SDS011;10397;50.948;11.092;2023-06-10T06:26:45;7.17;;;4.05;;
20476;SDS011;10397;50.948;11.092;2023-06-10T06:29:17;10.80;;;4.15;;
20476;SDS011;10397;50.948;11.092;2023-06-10T06:31:48;6.55;;;3.87;;
20476;SDS011;10397;50.948;11.092;2023-06-10T06:34:20;6.17;;;3.77;;
20476;SDS011;10397;50.948;11.092;2023-06-10T06:36:51;9.85;;;4.55;;
20476;SDS011;10397;50.948;11.092;2023-06-10T06:39:23;5.12;;;3.85;;
20476;SDS011;10397;50.948;11.092;2023-06-10T06:41:54;8.35;;;4.83;;
20476;SDS011;10397;50.948;11.092;2023-06-10T06:44:26;8.48;;;4.47;;
20476;SDS011;10397;50.948;11.092;2023-06-10T06:46:57;8.45;;;4.72;;
20476;SDS011;10397;50.948;11.092;2023-06-10T06:49:28;8.03;;;4.78;;
20476;SDS011;10397;50.948;11.092;2023-06-10T06:52:00;10.10;;;4.58;;
20476;SDS011;10397;50.948;11.092;2023-06-10T06:54:31;9.93;;;4.70;;
20476;SDS011;10397;50.948;11.092;2023-06-10T06:57:02;7.70;;;4.83;;
20476;SDS011;10397;50.948;11.092;2023-06-10T06:59:33;9.53;;;4.77;;
20476;SDS011;10397;50.948;11.092;2023-06-10T07:02:04;6.67;;;4.13;;
20476;SDS011;10397;50.948;11.092;2023-06-10T07:04:35;7.65;;;4.47;;
20476;SDS011;10397;50.948;11.092;2023-06-10T07:07:06;10.90;;;5.23;;
20476;SDS011;10397;50.948;11.092;2023-06-10T07:09:37;9.93;;;4.33;;
20476;SDS011;10397;50.948;11.092;2023-06-10T07:12:07;7.53;;;4.80;;
20476;SDS011;10397;50.948;11.092;2023-06-10T07:14:38;5.45;;;4.65;;
20476;SDS011;10397;50.948;11.092;2023-06-10T07:17:09;4.67;;;4.10;;
20476;SDS011;10397;50.948;11.092;2023-06-10T07:19:41;6.20;;;4.37;;
20476;SDS011;10397;50.948;11.092;2023-06-10T07:22:12;6.70;;;4.07;;
20476;SDS011;10397;50.948;11.092;2023-06-10T07:24:43;8.05;;;4.67;;
20476;SDS011;10397;50.948;11.092;2023-06-10T07:27:15;6.78;;;4.53;;
20476;SDS011;10397;50.948;11.092;2023-06-10T07:29:47;6.80;;;4.85;;
20476;SDS011;10397;50.948;11.092;2023-06-10T07:32:19;11.18;;;5.45;;
20476;SDS011;10397;50.948;11.092;2023-06-10T07:34:49;7.40;;;5.27;;
20476;SDS011;10397;50.948;11.092;2023-06-10T07:37:19;9.78;;;5.50;;
20476;SDS011;10397;50.948;11.092;2023-06-10T07:39:51;9.88;;;5.22;;
20476;SDS011;10397;50.948;11.092;2023-06-10T07:42:22;6.42;;;4.28;;
20476;SDS011;10397;50.948;11.092;2023-06-10T07:44:54;9.08;;;5.83;;
20476;SDS011;10397;50.948;11.092;2023-06-10T07:47:26;12.80;;;5.60;;
20476;SDS011;10397;50.948;11.092;2023-06-10T07:49:57;5.80;;;4.55;;
20476;SDS011;10397;50.948;11.092;2023-06-10T07:52:29;8.53;;;4.92;;
20476;SDS011;10397;50.948;11.092;2023-06-10T07:55:00;7.42;;;5.33;;
20476;SDS011;10397;50.948;11.092;2023-06-10T07:57:32;8.48;;;6.08;;
20476;SDS011;10397;50.948;11.092;2023-06-10T08:00:03;5.97;;;5.03;;
20476;SDS011;10397;50.948;11.092;2023-06-10T08:02:34;7.15;;;4.42;;
20476;SDS011;10397;50.948;11.092;2023-06-10T08:05:05;6.80;;;5.07;;
20476;SDS011;10397;50.948;11.092;2023-06-10T08:07:36;11.95;;;5.60;;
20476;SDS011;10397;50.948;11.092;2023-06-10T08:10:07;11.48;;;5.10;;
20476;SDS011;10397;50.948;11.092;2023-06-10T08:12:38;9.13;;;5.42;;
20476;SDS011;10397;50.948;11.092;2023-06-10T08:15:10;7.45;;;4.90;;
20476;SDS011;10397;50.948;11.092;2023-06-10T08:17:41;6.78;;;5.03;;
20476;SDS011;10397;50.948;11.092;2023-06-10T08:20:12;7.50;;;4.73;;
20476;SDS011;10397;50.948;11.092;2023-06-10T08:22:44;6.50;;;4.80;;
20476;SDS011;10397;50.948;11.092;2023-06-10T08:25:15;7.20;;;4.83;;
20476;SDS011;10397;50.948;11.092;2023-06-10T08:27:46;7.37;;;4.95;;
20476;SDS011;10397;50.948;11.092;2023-06-10T08:30:18;6.85;;;4.70;;
20476;SDS011;10397;50.948;11.092;2023-06-10T08:32:49;7.60;;;5.10;;
20476;SDS011;10397;50.948;11.092;2023-06-10T08:35:21;10.35;;;5.50;;
20476;SDS011;10397;50.948;11.092;2023-06-10T08:37:53;9.48;;;5.15;;
20476;SDS011;10397;50.948;11.092;2023-06-10T08:40:24;10.45;;;5.35;;
20476;SDS011;10397;50.948;11.092;2023-06-10T08:43:05;11.88;;;5.90;;
20476;SDS011;10397;50.948;11.092;2023-06-10T08:45:32;8.50;;;4.80;;
20476;SDS011;10397;50.948;11.092;2023-06-10T08:48:03;7.50;;;4.87;;
20476;SDS011;10397;50.948;11.092;2023-06-10T08:50:34;6.70;;;5.20;;
20476;SDS011;10397;50.948;11.092;2023-06-10T08:53:05;6.50;;;5.27;;
20476;SDS011;10397;50.948;11.092;2023-06-10T08:55:36;9.65;;;4.87;;
20476;SDS011;10397;50.948;11.092;2023-06-10T08:58:06;9.15;;;5.33;;
20476;SDS011;10397;50.948;11.092;2023-06-10T09:00:38;8.40;;;5.05;;
20476;SDS011;10397;50.948;11.092;2023-06-10T09:03:09;5.92;;;5.35;;
20476;SDS011;10397;50.948;11.092;2023-06-10T09:05:41;6.50;;;4.75;;
20476;SDS011;10397;50.948;11.092;2023-06-10T09:08:11;7.93;;;4.43;;
20476;SDS011;10397;50.948;11.092;2023-06-10T09:10:43;6.92;;;4.80;;
20476;SDS011;10397;50.948;11.092;2023-06-10T09:13:14;6.22;;;4.78;;
20476;SDS011;10397;50.948;11.092;2023-06-10T09:15:45;5.42;;;4.20;;
20476;SDS011;10397;50.948;11.092;2023-06-10T09:18:17;9.05;;;4.75;;
20476;SDS011;10397;50.948;11.092;2023-06-10T09:20:48;5.50;;;4.47;;
20476;SDS011;10397;50.948;11.092;2023-06-10T09:23:19;5.85;;;4.40;;
20476;SDS011;10397;50.948;11.092;2023-06-10T09:25:55;8.57;;;5.23;;
20476;SDS011;10397;50.948;11.092;2023-06-10T09:28:21;10.90;;;4.60;;
20476;SDS011;10397;50.948;11.092;2023-06-10T09:31:01;7.30;;;5.20;;
20476;SDS011;10397;50.948;11.092;2023-06-10T09:33:37;6.87;;;5.57;;
20476;SDS011;10397;50.948;11.092;2023-06-10T09:36:08;5.97;;;4.67;;
20476;SDS011;10397;50.948;11.092;2023-06-10T09:38:38;7.17;;;4.47;;
20476;SDS011;10397;50.948;11.092;2023-06-10T09:41:09;6.13;;;5.27;;
20476;SDS011;10397;50.948;11.092;2023-06-10T09:43:44;5.67;;;4.53;;
20476;SDS011;10397;50.948;11.092;2023-06-10T09:46:15;16.53;;;4.73;;
20476;SDS011;10397;50.948;11.092;2023-06-10T09:48:48;7.90;;;4.73;;
20476;SDS011;10397;50.948;11.092;2023-06-10T09:51:19;7.17;;;4.67;;
20476;SDS011;10397;50.948;11.092;2023-06-10T09:53:51;7.37;;;4.47;;
20476;SDS011;10397;50.948;11.092;2023-06-10T09:56:32;6.28;;;4.78;;
20476;SDS011;10397;50.948;11.092;2023-06-10T09:58:54;9.75;;;4.85;;
20476;SDS011;10397;50.948;11.092;2023-06-10T10:01:26;6.37;;;4.55;;
20476;SDS011;10397;50.948;11.092;2023-06-10T10:03:57;9.58;;;5.30;;
20476;SDS011;10397;50.948;11.092;2023-06-10T10:06:28;8.90;;;4.37;;
20476;SDS011;10397;50.948;11.092;2023-06-10T10:09:00;5.45;;;4.00;;
20476;SDS011;10397;50.948;11.092;2023-06-10T10:11:31;8.28;;;4.75;;
20476;SDS011;10397;50.948;11.092;2023-06-10T10:14:02;8.33;;;4.85;;
20476;SDS011;10397;50.948;11.092;2023-06-10T10:16:36;6.00;;;3.90;;
20476;SDS011;10397;50.948;11.092;2023-06-10T10:19:18;6.00;;;4.53;;
20476;SDS011;10397;50.948;11.092;2023-06-10T10:21:52;6.43;;;4.80;;
20476;SDS011;10397;50.948;11.092;2023-06-10T10:24:25;10.00;;;4.58;;
20476;SDS011;10397;50.948;11.092;2023-06-10T10:26:54;6.03;;;4.23;;
20476;SDS011;10397;50.948;11.092;2023-06-10T10:29:33;6.15;;;5.17;;
20476;SDS011;10397;50.948;11.092;2023-06-10T10:32:07;6.30;;;4.73;;
20476;SDS011;10397;50.948;11.092;2023-06-10T10:37:12;7.50;;;5.13;;
20476;SDS011;10397;50.948;11.092;2023-06-10T10:39:44;5.27;;;4.50;;
20476;SDS011;10397;50.948;11.092;2023-06-10T10:42:14;6.37;;;5.10;;
20476;SDS011;10397;50.948;11.092;2023-06-10T10:44:45;7.85;;;5.10;;
20476;SDS011;10397;50.948;11.092;2023-06-10T10:47:17;7.53;;;4.65;;
20476;SDS011;10397;50.948;11.092;2023-06-10T10:49:48;5.42;;;4.10;;
20476;SDS011;10397;50.948;11.092;2023-06-10T10:52:19;10.53;;;4.97;;
20476;SDS011;10397;50.948;11.092;2023-06-10T10:54:52;7.72;;;5.25;;
20476;SDS011;10397;50.948;11.092;2023-06-10T10:57:22;7.10;;;4.25;;
20476;SDS011;10397;50.948;11.092;2023-06-10T10:59:53;7.17;;;5.00;;
20476;SDS011;10397;50.948;11.092;2023-06-10T11:05:14;7.57;;;5.00;;
20476;SDS011;10397;50.948;11.092;2023-06-10T11:07:54;5.85;;;5.35;;
20476;SDS011;10397;50.948;11.092;2023-06-10T11:10:50;12.07;;;5.00;;
20476;SDS011;10397;50.948;11.092;2023-06-10T11:12:59;7.80;;;5.00;;
20476;SDS011;10397;50.948;11.092;2023-06-10T11:15:30;7.58;;;4.85;;
20476;SDS011;10397;50.948;11.092;2023-06-10T11:18:07;6.35;;;4.78;;
20476;SDS011;10397;50.948;11.092;2023-06-10T11:31:25;6.37;;;4.73;;
20476;SDS011;10397;50.948;11.092;2023-06-10T11:34:04;7.83;;;5.13;;
20476;SDS011;10397;50.948;11.092;2023-06-10T11:36:36;6.23;;;4.90;;
20476;SDS011;10397;50.948;11.092;2023-06-10T11:39:05;7.28;;;5.08;;
20476;SDS011;10397;50.948;11.092;2023-06-10T11:41:36;6.53;;;5.43;;
20476;SDS011;10397;50.948;11.092;2023-06-10T11:44:10;8.23;;;5.55;;
20476;SDS011;10397;50.948;11.092;2023-06-10T11:46:40;14.20;;;5.30;;
20476;SDS011;10397;50.948;11.092;2023-06-10T11:49:11;7.92;;;5.65;;
20476;SDS011;10397;50.948;11.092;2023-06-10T11:51:42;6.60;;;5.90;;
20476;SDS011;10397;50.948;11.092;2023-06-10T11:54:13;7.30;;;5.83;;
20476;SDS011;10397;50.948;11.092;2023-06-10T11:56:44;7.30;;;5.85;;
20476;SDS011;10397;50.948;11.092;2023-06-10T11:59:15;11.65;;;6.15;;
20476;SDS011;10397;50.948;11.092;2023-06-10T12:01:46;7.90;;;5.55;;
20476;SDS011;10397;50.948;11.092;2023-06-10T12:04:17;6.08;;;5.58;;
20476;SDS011;10397;50.948;11.092;2023-06-10T12:06:49;13.03;;;5.85;;
20476;SDS011;10397;50.948;11.092;2023-06-10T12:09:27;6.15;;;5.65;;
20476;SDS011;10397;50.948;11.092;2023-06-10T12:11:57;6.43;;;5.80;;
20476;SDS011;10397;50.948;11.092;2023-06-10T12:14:52;13.10;;;6.07;;
20476;SDS011;10397;50.948;11.092;2023-06-10T12:20:01;6.33;;;5.73;;
20476;SDS011;10397;50.948;11.092;2023-06-10T12:22:41;6.25;;;5.70;;
20476;SDS011;10397;50.948;11.092;2023-06-10T12:25:11;6.43;;;5.83;;
20476;SDS011;10397;50.948;11.092;2023-06-10T12:27:52;5.62;;;5.12;;
20476;SDS011;10397;50.948;11.092;2023-06-10T12:30:26;6.80;;;5.53;;
20476;SDS011;10397;50.948;11.092;2023-06-10T12:32:56;9.47;;;5.60;;
20476;SDS011;10397;50.948;11.092;2023-06-10T12:35:28;6.67;;;5.47;;
20476;SDS011;10397;50.948;11.092;2023-06-10T12:38:00;6.10;;;5.60;;
20476;SDS011;10397;50.948;11.092;2023-06-10T12:40:30;6.57;;;5.63;;
20476;SDS011;10397;50.948;11.092;2023-06-10T12:43:00;7.67;;;5.28;;
20476;SDS011;10397;50.948;11.092;2023-06-10T12:45:32;6.85;;;5.80;;
20476;SDS011;10397;50.948;11.092;2023-06-10T12:48:05;6.40;;;5.80;;
20476;SDS011;10397;50.948;11.092;2023-06-10T12:50:42;8.27;;;6.20;;
20476;SDS011;10397;50.948;11.092;2023-06-10T12:53:12;6.40;;;5.80;;
20476;SDS011;10397;50.948;11.092;2023-06-10T12:55:43;8.43;;;5.05;;
20476;SDS011;10397;50.948;11.092;2023-06-10T12:58:14;6.92;;;5.70;;
20476;SDS011;10397;50.948;11.092;2023-06-10T13:00:45;6.90;;;5.35;;
20476;SDS011;10397;50.948;11.092;2023-06-10T13:03:17;6.58;;;5.53;;
20476;SDS011;10397;50.948;11.092;2023-06-10T13:05:47;6.67;;;5.53;;
20476;SDS011;10397;50.948;11.092;2023-06-10T13:08:19;6.90;;;5.65;;
20476;SDS011;10397;50.948;11.092;2023-06-10T13:10:51;5.70;;;5.20;;
20476;SDS011;10397;50.948;11.092;2023-06-10T13:13:22;5.15;;;4.72;;
20476;SDS011;10397;50.948;11.092;2023-06-10T13:15:53;5.67;;;5.17;;
20476;SDS011;10397;50.948;11.092;2023-06-10T13:18:25;6.25;;;4.08;;
20476;SDS011;10397;50.948;11.092;2023-06-10T13:20:57;6.92;;;4.17;;
20476;SDS011;10397;50.948;11.092;2023-06-10T13:23:28;5.62;;;5.12;;
20476;SDS011;10397;50.948;11.092;2023-06-10T13:26:00;6.83;;;5.15;;
20476;SDS011;10397;50.948;11.092;2023-06-10T13:28:31;7.20;;;4.97;;
20476;SDS011;10397;50.948;11.092;2023-06-10T13:31:03;6.08;;;4.28;;
20476;SDS011;10397;50.948;11.092;2023-06-10T13:33:35;3.95;;;3.65;;
20476;SDS011;10397;50.948;11.092;2023-06-10T13:36:05;8.93;;;4.50;;
20476;SDS011;10397;50.948;11.092;2023-06-10T13:38:36;5.87;;;3.72;;
20476;SDS011;10397;50.948;11.092;2023-06-10T13:41:08;4.25;;;3.25;;
20476;SDS011;10397;50.948;11.092;2023-06-10T13:43:39;6.78;;;3.65;;
20476;SDS011;10397;50.948;11.092;2023-06-10T13:46:10;5.45;;;4.25;;
20476;SDS011;10397;50.948;11.092;2023-06-10T13:48:41;5.78;;;3.75;;
20476;SDS011;10397;50.948;11.092;2023-06-10T13:51:12;5.37;;;4.30;;
20476;SDS011;10397;50.948;11.092;2023-06-10T13:53:44;3.42;;;3.12;;
20476;SDS011;10397;50.948;11.092;2023-06-10T13:56:15;4.75;;;2.98;;
20476;SDS011;10397;50.948;11.092;2023-06-10T13:58:47;5.45;;;3.10;;
20476;SDS011;10397;50.948;11.092;2023-06-10T14:01:18;4.20;;;2.50;;
20476;SDS011;10397;50.948;11.092;2023-06-10T14:03:50;3.42;;;2.72;;
20476;SDS011;10397;50.948;11.092;2023-06-10T14:06:21;2.83;;;2.10;;
20476;SDS011;10397;50.948;11.092;2023-06-10T14:08:52;5.35;;;2.77;;
20476;SDS011;10397;50.948;11.092;2023-06-10T14:11:24;5.65;;;2.65;;
20476;SDS011;10397;50.948;11.092;2023-06-10T14:13:55;7.35;;;2.30;;
20476;SDS011;10397;50.948;11.092;2023-06-10T14:16:27;6.58;;;2.62;;
20476;SDS011;10397;50.948;11.092;2023-06-10T14:18:58;4.65;;;2.30;;
20476;SDS011;10397;50.948;11.092;2023-06-10T14:21:30;2.87;;;2.17;;
20476;SDS011;10397;50.948;11.092;2023-06-10T14:24:01;4.47;;;2.22;;
20476;SDS011;10397;50.948;11.092;2023-06-10T14:26:31;3.55;;;2.60;;
20476;SDS011;10397;50.948;11.092;2023-06-10T14:29:03;2.72;;;2.30;;
20476;SDS011;10397;50.948;11.092;2023-06-10T14:31:34;4.65;;;2.20;;
20476;SDS011;10397;50.948;11.092;2023-06-10T14:34:06;2.77;;;2.45;;
20476;SDS011;10397;50.948;11.092;2023-06-10T14:36:37;4.37;;;1.70;;
20476;SDS011;10397;50.948;11.092;2023-06-10T14:39:09;2.80;;;2.37;;
20476;SDS011;10397;50.948;11.092;2023-06-10T14:41:40;4.50;;;2.00;;
20476;SDS011;10397;50.948;11.092;2023-06-10T14:44:11;5.47;;;2.35;;
20476;SDS011;10397;50.948;11.092;2023-06-10T14:46:42;3.35;;;2.22;;
20476;SDS011;10397;50.948;11.092;2023-06-10T14:49:14;3.37;;;1.92;;
20476;SDS011;10397;50.948;11.092;2023-06-10T14:51:45;4.60;;;2.15;;
20476;SDS011;10397;50.948;11.092;2023-06-10T14:54:17;3.30;;;2.12;;
20476;SDS011;10397;50.948;11.092;2023-06-10T14:56:48;3.05;;;2.30;;
20476;SDS011;10397;50.948;11.092;2023-06-10T14:59:20;2.27;;;1.65;;
20476;SDS011;10397;50.948;11.092;2023-06-10T15:01:51;4.53;;;2.72;;
20476;SDS011;10397;50.948;11.092;2023-06-10T15:04:23;3.35;;;2.47;;
20476;SDS011;10397;50.948;11.092;2023-06-10T15:06:54;6.83;;;2.40;;
20476;SDS011;10397;50.948;11.092;2023-06-10T15:09:25;2.98;;;2.58;;
20476;SDS011;10397;50.948;11.092;2023-06-10T15:11:57;3.40;;;2.22;;
20476;SDS011;10397;50.948;11.092;2023-06-10T15:14:27;3.90;;;2.20;;
20476;SDS011;10397;50.948;11.092;2023-06-10T15:16:58;3.30;;;2.60;;
20476;SDS011;10397;50.948;11.092;2023-06-10T15:19:29;2.67;;;2.37;;